ADDS METAR Data INFO
IDs: Format: Raw Decoded Include TAF

Data at: 2111 UTC 19 Jul 2018

KSEM 192055Z AUTO 31008KT 10SM SCT050 SCT055 31/25 A2988 RMK AO2
KSEM 192035Z AUTO VRB04KT 10SM FEW037 32/25 A2988 RMK AO2 LTG DSNT NE
KSEM 192015Z AUTO 31004KT 10SM FEW028 SCT037 SCT050 32/25 A2988 RMK AO2
KSEM 191955Z AUTO 32005KT 10SM SCT028 SCT045 BKN060 32/25 A2989 RMK AO2 LTG DSNT NE AND E
KSEM 191935Z AUTO VRB04KT 10SM BKN028 BKN037 BKN043 31/24 A2990 RMK AO2
KSEM 191915Z AUTO 24005KT 10SM FEW024 SCT030 32/24 A2990 RMK AO2 LTG DSNT NE
KSEM 191855Z AUTO VRB04KT 10SM CLR 31/24 A2990 RMK AO2 LTG DSNT E
KSEM 191835Z AUTO 36005KT 10SM CLR 30/24 A2991 RMK AO2
KSEM 191815Z AUTO 33006KT 10SM FEW020 30/25 A2992 RMK AO2
KSEM 191755Z AUTO VRB04KT 10SM SCT018 30/25 A2993 RMK AO2
KSEM 191735Z AUTO 29007KT 10SM BKN017 29/24 A2994 RMK AO2
KSEM 191715Z AUTO 31006KT 10SM BKN016 29/25 A2995 RMK AO2
KSEM 191655Z AUTO 30005KT 10SM BKN015 29/25 A2995 RMK AO2
KSEM 191635Z AUTO VRB05KT 10SM SCT015 29/24 A2996 RMK AO2
KSEM 191615Z AUTO VRB03KT 10SM BKN015 29/24 A2996 RMK AO2
KSEM 191555Z AUTO 00000KT 10SM BKN014 28/24 A2996 RMK AO2
KSEM 191535Z AUTO 26004KT 10SM OVC013 28/24 A2996 RMK AO2
KSEM 191515Z AUTO 31004KT 10SM OVC013 27/24 A2995 RMK AO2
KSEM 191455Z AUTO 00000KT 10SM OVC011 27/24 A2995 RMK AO2 LTG DSNT NW
KSEM 191435Z AUTO 00000KT 10SM BKN010 OVC013 27/23 A2996 RMK AO2
KSEM 191415Z AUTO 00000KT 10SM OVC008 26/23 A2996 RMK AO2
KSEM 191355Z AUTO 26005KT 10SM OVC007 25/23 A2995 RMK AO2
KSEM 191335Z AUTO 27004KT 10SM OVC005 25/23 A2996 RMK AO2
KSEM 191315Z AUTO 27005KT 10SM OVC004 24/23 A2996 RMK AO2
KSEM 191255Z AUTO 23004KT 10SM OVC003 24/23 A2995 RMK AO2
KSEM 191235Z AUTO 23005KT 10SM OVC003 23/23 A2995 RMK AO2
KSEM 191215Z AUTO 00000KT 8SM OVC003 23/23 A2995 RMK AO2
KSEM 191155Z AUTO 00000KT 10SM BKN003 23/22 A2994 RMK AO2
KSEM 191135Z AUTO 23003KT 10SM BKN003 23/22 A2994 RMK AO2
KSEM 191115Z AUTO 22003KT 10SM OVC003 23/22 A2994 RMK AO2
KSEM 191055Z AUTO 00000KT M1/4SM FG OVC002 23/22 A2993 RMK AO2
KSEM 191035Z AUTO 00000KT 1/4SM FG OVC002 23/22 A2993 RMK AO2
KSEM 191015Z AUTO 27003KT 1/2SM BR OVC002 23/23 A2993 RMK AO2
KSEM 190955Z AUTO 00000KT 4SM BR OVC002 23/22 A2992 RMK AO2
KSEM 190935Z AUTO 00000KT 1 1/2SM BR OVC002 23/22 A2992 RMK AO2 VIS 1V3
KSEM 190915Z AUTO 00000KT 1/2SM FG OVC002 23/22 A2991 RMK AO2
KSEM 190855Z AUTO 00000KT 3/4SM BR OVC002 23/22 A2991 RMK AO2
KSEM 190835Z AUTO 00000KT 1/2SM FG OVC002 23/22 A2991 RMK AO2
KSEM 190815Z AUTO 00000KT 1/2SM FG OVC002 23/22 A2991 RMK AO2
KSEM 190755Z AUTO 00000KT 1SM BR OVC002 23/22 A2991 RMK AO2
KSEM 190735Z AUTO 16004KT 1 3/4SM BR OVC002 23/22 A2991 RMK AO2
KSEM 190715Z AUTO 15003KT 1 1/2SM BR OVC003 23/23 A2990 RMK AO2
KSEM 190655Z AUTO 18004KT 3SM BR OVC003 23/23 A2990 RMK AO2
KSEM 190635Z AUTO 00000KT 7SM OVC002 23/23 A2990 RMK AO2
KSEM 190615Z AUTO 00000KT 10SM SCT003 23/23 A2991 RMK AO2
KSEM 190555Z AUTO 00000KT 10SM CLR 24/23 A2990 RMK AO2
KSEM 190535Z AUTO 00000KT 10SM CLR 24/23 A2990 RMK AO2
KSEM 190515Z AUTO 07003KT 10SM CLR 23/23 A2990 RMK AO2
KSEM 190455Z AUTO 00000KT 10SM CLR 24/23 A2992 RMK AO2
KSEM 190435Z AUTO 00000KT 10SM CLR 24/23 A2992 RMK AO2
KSEM 190415Z AUTO 00000KT 10SM CLR 24/23 A2993 RMK AO2
KSEM 190355Z AUTO 00000KT 10SM CLR 24/23 A2993 RMK AO2
KSEM 190335Z AUTO 26004KT 10SM CLR 24/23 A2993 RMK AO2
KSEM 190315Z AUTO 30005KT 10SM CLR 24/23 A2994 RMK AO2
KSEM 190255Z AUTO 00000KT 10SM CLR 24/23 A2993 RMK AO2
KSEM 190235Z AUTO 00000KT 10SM CLR 24/23 A2993 RMK AO2 LTG DSNT SW
KSEM 190215Z AUTO 00000KT 10SM FEW110 24/23 A2993 RMK AO2 LTG DSNT SW
KSEM 190155Z AUTO 00000KT 10SM FEW040 SCT055 BKN065 24/23 A2992 RMK AO2
KSEM 190135Z AUTO VRB03KT 10SM -RA SCT037 BKN042 OVC055 24/23 A2992 RMK AO2
KSEM 190115Z AUTO 17004KT 9SM RA SCT036 BKN042 OVC047 24/23 A2993 RMK AO2 LTG DSNT S AND NW
KSEM 190055Z AUTO 25005KT 10SM VCTS RA SCT043 BKN060 BKN095 24/23 A2993 RMK AO2 LTG DSNT S AND W
KSEM 190035Z AUTO 26004KT 10SM FEW090 24/23 A2992 RMK AO2 LTG DSNT S AND SW
KSEM 190015Z AUTO 28005KT 10SM VCTS CLR 24/23 A2991 RMK AO2 LTG DSNT S-W
KSEM 182355Z AUTO 31007KT 10SM VCTS SCT110 24/23 A2992 RMK AO2 LTG DSNT ALQDS
KSEM 182335Z AUTO 33007G14KT 10SM VCTS RA SCT036 BKN048 BKN060 25/23 A2992 RMK AO2 LTG DSNT ALQDS
KSEM 182315Z AUTO 03007G12KT 4SM VCTS RA SCT039 OVC047 25/22 A2991 RMK AO2 LTG DSNT ALQDS
KSEM 182255Z AUTO 08008G17KT 10SM VCTS BKN039 OVC047 27/21 A2992 RMK AO2 LTG DSNT ALQDS
KSEM 182235Z AUTO 07015G24KT 10SM VCTS FEW033 BKN038 OVC070 28/21 A2991 RMK AO2 LTG DSNT N-E
KSEM 182215Z AUTO 04014G20KT 10SM VCTS FEW039 BKN070 BKN085 33/23 A2990 RMK AO2 LTG DSNT NE
KSEM 182155Z AUTO 21004KT 10SM VCTS FEW044 FEW050 33/23 A2989 RMK AO2 LTG DSNT NE AND E
KSEM 182135Z AUTO VRB05KT 10SM SCT041 BKN048 BKN055 34/24 A2988 RMK AO2 LTG DSNT NE AND E
KSEM 182115Z AUTO 26005KT 10SM FEW050 33/23 A2989 RMK AO2
KSEM 182055Z AUTO 00000KT 10SM FEW055 FEW065 33/23 A2988 RMK AO2
KSEM 182035Z AUTO VRB05KT 10SM FEW046 FEW055 SCT065 33/23 A2989 RMK AO2 LTG DSNT E
KSEM 182015Z AUTO VRB04KT 10SM FEW060 FEW075 32/24 A2991 RMK AO2 LTG DSNT E AND SW
KSEM 181955Z AUTO VRB06KT 10SM SCT037 SCT050 33/24 A2992 RMK AO2
KSEM 181935Z AUTO 30005KT 10SM FEW038 FEW070 33/24 A2993 RMK AO2
KSEM 181915Z AUTO 24003KT 10SM FEW033 FEW039 FEW044 32/23 A2993 RMK AO2
KSEM 181855Z AUTO 32006KT 10SM FEW033 FEW039 SCT046 31/24 A2994 RMK AO2
KSEM 181835Z AUTO 30003KT 10SM SCT033 SCT042 32/23 A2995 RMK AO2
KSEM 181815Z AUTO 00000KT 10SM SCT034 SCT040 32/23 A2995 RMK AO2
KSEM 181755Z AUTO 00000KT 10SM FEW037 32/23 A2996 RMK AO2
KSEM 181735Z AUTO 24006KT 10SM FEW032 31/24 A2997 RMK AO2
KSEM 181715Z AUTO VRB03KT 10SM CLR 31/24 A2998 RMK AO2
KSEM 181655Z AUTO VRB05KT 10SM CLR 31/23 A2998 RMK AO2
KSEM 181635Z AUTO 29003KT 10SM CLR 30/23 A2998 RMK AO2
KSEM 181615Z AUTO VRB06KT 10SM CLR 30/23 A2999 RMK AO2
KSEM 181555Z AUTO 27005KT 10SM CLR 29/23 A2999 RMK AO2
KSEM 181535Z AUTO 30006KT 10SM CLR 29/23 A2999 RMK AO2
KSEM 181515Z AUTO 28004KT 10SM CLR 28/23 A3000 RMK AO2
KSEM 181455Z AUTO VRB04KT 10SM CLR 28/23 A3000 RMK AO2
KSEM 181435Z AUTO 00000KT 10SM CLR 27/23 A3000 RMK AO2
KSEM 181415Z AUTO 31005KT 10SM CLR 27/23 A3000 RMK AO2
KSEM 181355Z AUTO 26004KT 10SM CLR 26/23 A3000 RMK AO2
KSEM 181335Z AUTO 29005KT 10SM SCT030 25/23 A3000 RMK AO2
KSEM 181315Z AUTO 29004KT 10SM BKN030 BKN040 25/22 A3001 RMK AO2
KSEM 181255Z AUTO 28003KT 10SM BKN035 BKN042 25/22 A3001 RMK AO2
KSEM 181235Z AUTO 00000KT 10SM BKN034 24/22 A3000 RMK AO2
KSEM 181215Z AUTO 00000KT 10SM FEW006 SCT035 24/22 A3000 RMK AO2
KSEM 181155Z AUTO 00000KT 10SM FEW006 SCT035 SCT060 24/22 A3000 RMK AO2
KSEM 181135Z AUTO 00000KT 10SM FEW005 SCT060 23/22 A3000 RMK AO2
KSEM 181115Z AUTO 00000KT 10SM FEW005 23/22 A2999 RMK AO2
KSEM 181055Z AUTO 00000KT 10SM FEW006 23/22 A2999 RMK AO2
KSEM 181035Z AUTO 28004KT 10SM CLR 23/22 A2998 RMK AO2
KSEM 181015Z AUTO 00000KT 10SM CLR 23/22 A2997 RMK AO2
KSEM 180955Z AUTO 27004KT 10SM FEW038 23/22 A2997 RMK AO2
KSEM 180935Z AUTO 00000KT 10SM CLR 24/23 A2997 RMK AO2
KSEM 180915Z AUTO 27005KT 10SM CLR 24/23 A2996 RMK AO2